createdAt,value
2017-11-30T00:00:07.317Z,999.25
2017-11-30T00:01:07.077Z,999.26
2017-11-30T00:02:07.136Z,999.26
2017-11-30T00:03:07.101Z,999.27
2017-11-30T00:04:07.120Z,999.27
2017-11-30T00:05:07.430Z,999.32
2017-11-30T00:06:07.147Z,999.28
2017-11-30T00:07:07.167Z,999.28
2017-11-30T00:08:07.164Z,999.28
2017-11-30T00:09:07.167Z,999.29
2017-11-30T00:10:07.202Z,999.31
2017-11-30T00:11:07.197Z,999.29
2017-11-30T00:12:07.211Z,999.30
2017-11-30T00:13:07.226Z,999.32
2017-11-30T00:14:07.225Z,999.30
2017-11-30T00:15:07.256Z,999.34
2017-11-30T00:16:07.261Z,999.31
2017-11-30T00:17:07.270Z,999.27
2017-11-30T00:18:07.305Z,999.28
2017-11-30T00:19:07.282Z,999.30
2017-11-30T00:20:07.324Z,999.25
2017-11-30T00:21:07.323Z,999.25
2017-11-30T00:22:07.326Z,999.24
2017-11-30T00:23:07.352Z,999.25
2017-11-30T00:24:07.337Z,999.24
2017-11-30T00:25:07.365Z,999.22
2017-11-30T00:26:07.377Z,999.24
2017-11-30T00:27:07.377Z,999.23
2017-11-30T00:28:07.397Z,999.22
2017-11-30T00:29:07.404Z,999.23
2017-11-30T00:30:07.436Z,999.20
2017-11-30T00:31:07.436Z,999.23
2017-11-30T00:32:07.440Z,999.25
2017-11-30T00:33:07.446Z,999.20
2017-11-30T00:34:07.461Z,999.26
2017-11-30T00:35:07.474Z,999.27
2017-11-30T00:36:07.493Z,999.25
2017-11-30T00:37:07.495Z,999.26
2017-11-30T00:38:07.506Z,999.27
2017-11-30T00:39:07.519Z,999.24
2017-11-30T00:40:07.519Z,999.20
2017-11-30T00:41:07.541Z,999.18
2017-11-30T00:42:07.551Z,999.17
2017-11-30T00:43:07.557Z,999.18
2017-11-30T00:44:07.577Z,999.16
2017-11-30T00:45:07.590Z,999.14
2017-11-30T00:46:07.597Z,999.16
2017-11-30T00:47:07.608Z,999.08
2017-11-30T00:48:07.614Z,999.13
2017-11-30T00:49:07.623Z,999.11
2017-11-30T00:50:07.643Z,999.09
2017-11-30T00:51:07.652Z,999.08
2017-11-30T00:52:07.673Z,999.07
2017-11-30T00:53:07.675Z,999.07
2017-11-30T00:54:07.685Z,999.09
2017-11-30T00:55:07.694Z,999.07
2017-11-30T00:56:07.711Z,999.06
2017-11-30T00:57:07.718Z,999.00
2017-11-30T00:58:07.737Z,999.00
2017-11-30T00:59:07.787Z,999.00
2017-11-30T01:00:08.001Z,999.00
2017-11-30T01:01:07.771Z,998.96
2017-11-30T01:02:07.776Z,998.99
2017-11-30T01:03:07.791Z,999.00
2017-11-30T01:04:07.812Z,998.95
2017-11-30T01:05:07.815Z,998.99
2017-11-30T01:06:07.828Z,998.96
2017-11-30T01:07:07.841Z,998.97
2017-11-30T01:08:07.845Z,998.93
2017-11-30T01:09:07.855Z,998.95
2017-11-30T01:10:07.878Z,998.95
2017-11-30T01:11:07.885Z,999.00
2017-11-30T01:12:07.909Z,999.02
2017-11-30T01:13:07.905Z,999.01
2017-11-30T01:14:07.920Z,999.01
2017-11-30T01:15:07.928Z,999.01
2017-11-30T01:16:07.942Z,999.02
2017-11-30T01:17:07.951Z,999.01
2017-11-30T01:18:07.962Z,998.96
2017-11-30T01:19:07.988Z,998.92
2017-11-30T01:20:07.993Z,998.94
2017-11-30T01:21:08.001Z,998.92
2017-11-30T01:22:08.014Z,998.92
2017-11-30T01:23:08.013Z,998.93
2017-11-30T01:24:08.045Z,998.93
2017-11-30T01:25:08.053Z,998.92
2017-11-30T01:26:08.059Z,998.90
2017-11-30T01:27:08.071Z,998.91
2017-11-30T01:28:08.078Z,998.91
2017-11-30T01:29:08.098Z,998.96
2017-11-30T01:30:08.355Z,998.92
2017-11-30T01:31:08.118Z,998.93
2017-11-30T01:32:08.127Z,998.96
2017-11-30T01:33:08.143Z,998.92
2017-11-30T01:34:08.153Z,998.88
2017-11-30T01:35:08.167Z,998.91
2017-11-30T01:36:08.173Z,998.90
2017-11-30T01:37:08.182Z,998.89
2017-11-30T01:38:08.206Z,998.90
2017-11-30T01:39:08.205Z,998.92
2017-11-30T01:40:08.475Z,998.90
2017-11-30T01:41:08.234Z,998.89
2017-11-30T01:42:08.250Z,998.87
2017-11-30T01:43:08.264Z,998.83
2017-11-30T01:44:08.277Z,998.82
2017-11-30T01:45:08.270Z,998.83
2017-11-30T01:46:08.284Z,998.79
2017-11-30T01:47:08.307Z,998.79
2017-11-30T01:48:08.321Z,998.76
2017-11-30T01:49:08.330Z,998.79
2017-11-30T01:50:08.372Z,998.76
2017-11-30T01:51:08.340Z,998.81
2017-11-30T01:52:08.347Z,998.77
2017-11-30T01:53:08.374Z,998.78
2017-11-30T01:54:08.380Z,998.79
2017-11-30T01:55:08.391Z,998.79
2017-11-30T01:56:08.403Z,998.79
2017-11-30T01:57:08.408Z,998.83
2017-11-30T01:58:08.431Z,998.85
2017-11-30T01:59:08.438Z,998.86
2017-11-30T02:00:08.442Z,998.88
2017-11-30T02:01:08.457Z,998.84
2017-11-30T02:02:08.472Z,998.86
2017-11-30T02:03:08.499Z,998.85
2017-11-30T02:04:08.500Z,998.87
2017-11-30T02:05:08.510Z,998.82
2017-11-30T02:06:08.514Z,998.88
2017-11-30T02:07:08.521Z,998.88
2017-11-30T02:08:08.533Z,998.90
2017-11-30T02:09:08.546Z,998.87
2017-11-30T02:10:08.860Z,998.87
2017-11-30T02:11:08.567Z,998.91
2017-11-30T02:12:08.573Z,998.88
2017-11-30T02:13:08.581Z,998.90
2017-11-30T02:14:08.615Z,998.87
2017-11-30T02:15:08.869Z,998.87
2017-11-30T02:16:08.625Z,998.85
2017-11-30T02:17:08.641Z,998.84
2017-11-30T02:18:08.645Z,998.80
2017-11-30T02:19:08.653Z,998.74
2017-11-30T02:20:08.698Z,998.79
2017-11-30T02:21:08.684Z,998.73
2017-11-30T02:22:08.691Z,998.70
2017-11-30T02:23:08.702Z,998.70
2017-11-30T02:24:08.716Z,998.69
2017-11-30T02:25:08.741Z,998.64
2017-11-30T02:26:08.736Z,998.72
2017-11-30T02:27:08.748Z,998.67
2017-11-30T02:28:08.759Z,998.65
2017-11-30T02:29:08.774Z,998.65
2017-11-30T02:30:08.788Z,998.61
2017-11-30T02:31:08.793Z,998.66
2017-11-30T02:32:08.811Z,998.65
2017-11-30T02:33:08.820Z,998.68
2017-11-30T02:34:08.831Z,998.71
2017-11-30T02:35:08.832Z,998.70
2017-11-30T02:36:08.852Z,998.70
2017-11-30T02:37:08.857Z,998.72
2017-11-30T02:38:08.876Z,998.73
2017-11-30T02:39:08.875Z,998.71
2017-11-30T02:40:08.903Z,998.72
2017-11-30T02:41:08.905Z,998.71
2017-11-30T02:42:08.916Z,998.68
2017-11-30T02:43:08.934Z,998.69
2017-11-30T02:44:08.940Z,998.68
2017-11-30T02:45:09.194Z,998.68
2017-11-30T02:46:08.968Z,998.68
2017-11-30T02:47:08.972Z,998.68
2017-11-30T02:48:08.985Z,998.67
2017-11-30T02:49:08.994Z,998.67
2017-11-30T02:50:08.999Z,998.68
2017-11-30T02:51:09.020Z,998.63
2017-11-30T02:52:09.029Z,998.64
2017-11-30T02:53:09.038Z,998.66
2017-11-30T02:54:09.060Z,998.63
2017-11-30T02:55:09.061Z,998.57
2017-11-30T02:56:09.074Z,998.62
2017-11-30T02:57:09.085Z,998.61
2017-11-30T02:58:09.101Z,998.56
2017-11-30T02:59:09.107Z,998.57
2017-11-30T03:00:09.119Z,998.59
2017-11-30T03:01:09.130Z,998.57
2017-11-30T03:02:09.135Z,998.59
2017-11-30T03:03:09.158Z,998.58
2017-11-30T03:04:09.170Z,998.54
2017-11-30T03:05:09.180Z,998.58
2017-11-30T03:06:09.185Z,998.59
2017-11-30T03:07:09.193Z,998.54
2017-11-30T03:08:09.215Z,998.56
2017-11-30T03:09:09.223Z,998.58
2017-11-30T03:10:09.241Z,998.52
2017-11-30T03:11:09.235Z,998.53
2017-11-30T03:12:09.249Z,998.53
2017-11-30T03:13:09.269Z,998.50
2017-11-30T03:14:09.275Z,998.48
2017-11-30T03:15:09.300Z,998.50
2017-11-30T03:16:09.297Z,998.51
2017-11-30T03:17:09.302Z,998.46
2017-11-30T03:18:09.329Z,998.48
2017-11-30T03:19:09.331Z,998.50
2017-11-30T03:20:09.352Z,998.52
2017-11-30T03:21:09.359Z,998.50
2017-11-30T03:22:09.365Z,998.52
2017-11-30T03:23:09.389Z,998.55
2017-11-30T03:24:09.389Z,998.55
2017-11-30T03:25:09.403Z,998.54
2017-11-30T03:26:09.410Z,998.55
2017-11-30T03:27:09.427Z,998.56
2017-11-30T03:28:09.439Z,998.55
2017-11-30T03:29:09.451Z,998.54
2017-11-30T03:30:09.763Z,998.54
2017-11-30T03:31:09.476Z,998.55
2017-11-30T03:32:09.490Z,998.55
2017-11-30T03:33:09.493Z,998.58
2017-11-30T03:34:09.506Z,998.61
2017-11-30T03:35:09.511Z,998.60
2017-11-30T03:36:09.530Z,998.60
2017-11-30T03:37:09.552Z,998.62
2017-11-30T03:38:09.550Z,998.63
2017-11-30T03:39:09.569Z,998.62
2017-11-30T03:40:09.825Z,998.60
2017-11-30T03:41:09.577Z,998.55
2017-11-30T03:42:09.609Z,998.56
2017-11-30T03:43:09.606Z,998.54
2017-11-30T03:44:09.626Z,998.52
2017-11-30T03:45:09.635Z,998.44
2017-11-30T03:46:09.641Z,998.50
2017-11-30T03:47:09.665Z,998.47
2017-11-30T03:48:09.664Z,998.42
2017-11-30T03:49:09.685Z,998.41
2017-11-30T03:50:09.686Z,998.41
2017-11-30T03:51:09.703Z,998.37
2017-11-30T03:52:09.724Z,998.35
2017-11-30T03:53:09.725Z,998.39
2017-11-30T03:54:09.729Z,998.37
2017-11-30T03:55:09.749Z,998.36
2017-11-30T03:56:09.766Z,998.42
2017-11-30T03:57:09.768Z,998.44
2017-11-30T03:58:09.803Z,998.42
2017-11-30T03:59:09.805Z,998.47
2017-11-30T04:00:10.107Z,998.49
2017-11-30T04:01:09.821Z,998.47
2017-11-30T04:02:09.825Z,998.45
2017-11-30T04:03:09.845Z,998.48
2017-11-30T04:04:09.865Z,998.47
2017-11-30T04:05:09.865Z,998.48
2017-11-30T04:06:09.884Z,998.43
2017-11-30T04:07:09.889Z,998.50
2017-11-30T04:08:09.895Z,998.48
2017-11-30T04:09:09.911Z,998.49
2017-11-30T04:10:10.182Z,998.48
2017-11-30T04:11:09.936Z,998.48
2017-11-30T04:12:09.947Z,998.51
2017-11-30T04:13:09.949Z,998.51
2017-11-30T04:14:09.962Z,998.49
2017-11-30T04:15:09.980Z,998.53
2017-11-30T04:16:09.996Z,998.50
2017-11-30T04:17:10.007Z,998.47
2017-11-30T04:18:10.007Z,998.47
2017-11-30T04:19:10.027Z,998.51
2017-11-30T04:20:10.047Z,998.53
2017-11-30T04:21:10.048Z,998.55
2017-11-30T04:22:10.059Z,998.57
2017-11-30T04:23:10.072Z,998.56
2017-11-30T04:24:10.071Z,998.50
2017-11-30T04:25:10.099Z,998.53
2017-11-30T04:26:10.106Z,998.54
2017-11-30T04:27:10.119Z,998.47
2017-11-30T04:28:10.130Z,998.48
2017-11-30T04:29:10.137Z,998.48
2017-11-30T04:30:10.151Z,998.43
2017-11-30T04:31:10.165Z,998.43
2017-11-30T04:32:10.174Z,998.42
2017-11-30T04:33:10.175Z,998.39
2017-11-30T04:34:10.201Z,998.39
2017-11-30T04:35:10.206Z,998.33
2017-11-30T04:36:10.226Z,998.33
2017-11-30T04:37:10.235Z,998.32
2017-11-30T04:38:10.241Z,998.32
2017-11-30T04:39:10.261Z,998.28
2017-11-30T04:40:10.514Z,998.30
2017-11-30T04:41:10.273Z,998.31
2017-11-30T04:42:10.286Z,998.33
2017-11-30T04:43:10.309Z,998.34
2017-11-30T04:44:10.316Z,998.29
2017-11-30T04:45:10.329Z,998.32
2017-11-30T04:46:10.332Z,998.31
2017-11-30T04:47:10.342Z,998.28
2017-11-30T04:48:10.359Z,998.33
2017-11-30T04:49:10.375Z,998.36
2017-11-30T04:50:10.381Z,998.34
2017-11-30T04:51:10.392Z,998.33
2017-11-30T04:52:10.400Z,998.36
2017-11-30T04:53:10.427Z,998.35
2017-11-30T04:54:10.431Z,998.35
2017-11-30T04:55:10.439Z,998.39
2017-11-30T04:56:10.457Z,998.37
2017-11-30T04:57:10.459Z,998.40
2017-11-30T04:58:10.484Z,998.38
2017-11-30T04:59:10.486Z,998.41
2017-11-30T05:00:10.745Z,998.41
2017-11-30T05:01:10.505Z,998.38
2017-11-30T05:02:10.528Z,998.44
2017-11-30T05:03:10.543Z,998.41
2017-11-30T05:04:10.546Z,998.41
2017-11-30T05:05:10.555Z,998.41
2017-11-30T05:06:10.568Z,998.38
2017-11-30T05:07:10.580Z,998.42
2017-11-30T05:08:10.591Z,998.44
2017-11-30T05:09:10.601Z,998.41
2017-11-30T05:10:10.606Z,998.44
2017-11-30T05:11:10.624Z,998.43
2017-11-30T05:12:10.642Z,998.43
2017-11-30T05:13:10.659Z,998.41
2017-11-30T05:14:10.659Z,998.41
2017-11-30T05:15:10.668Z,998.42
2017-11-30T05:16:10.676Z,998.43
2017-11-30T05:17:10.685Z,998.44
2017-11-30T05:18:10.700Z,998.42
2017-11-30T05:19:10.720Z,998.41
2017-11-30T05:20:10.739Z,998.37
2017-11-30T05:21:10.729Z,998.42
2017-11-30T05:22:10.743Z,998.40
2017-11-30T05:23:10.759Z,998.37
2017-11-30T05:24:10.771Z,998.40
2017-11-30T05:25:10.799Z,998.38
2017-11-30T05:26:10.813Z,998.33
2017-11-30T05:27:10.816Z,998.39
2017-11-30T05:28:10.821Z,998.31
2017-11-30T05:29:10.830Z,998.37
2017-11-30T05:30:10.837Z,998.41
2017-11-30T05:31:10.842Z,998.45
2017-11-30T05:32:10.868Z,998.42
2017-11-30T05:33:10.877Z,998.40
2017-11-30T05:34:10.881Z,998.43
2017-11-30T05:35:11.151Z,998.39
2017-11-30T05:36:10.899Z,998.39
2017-11-30T05:37:10.920Z,998.40
2017-11-30T05:38:10.934Z,998.40
2017-11-30T05:39:10.944Z,998.43
2017-11-30T05:40:11.258Z,998.41
2017-11-30T05:41:10.983Z,998.37
2017-11-30T05:42:10.983Z,998.36
2017-11-30T05:43:10.997Z,998.37
2017-11-30T05:44:10.995Z,998.36
2017-11-30T05:45:11.261Z,998.30
2017-11-30T05:46:11.036Z,998.34
2017-11-30T05:47:11.034Z,998.34
2017-11-30T05:48:11.047Z,998.31
2017-11-30T05:49:11.063Z,998.28
2017-11-30T05:50:11.079Z,998.32
2017-11-30T05:51:11.093Z,998.33
2017-11-30T05:52:11.101Z,998.35
2017-11-30T05:53:11.106Z,998.33
2017-11-30T05:54:11.132Z,998.32
2017-11-30T05:55:11.136Z,998.32
2017-11-30T05:56:11.144Z,998.32
2017-11-30T05:57:11.158Z,998.33
2017-11-30T05:58:11.164Z,998.29
2017-11-30T05:59:11.189Z,998.27
2017-11-30T06:00:11.194Z,998.23
2017-11-30T06:01:11.196Z,998.24
2017-11-30T06:02:11.210Z,998.26
2017-11-30T06:03:11.226Z,998.28
2017-11-30T06:04:11.245Z,998.28
2017-11-30T06:05:11.249Z,998.27
2017-11-30T06:06:11.252Z,998.31
2017-11-30T06:07:11.285Z,998.30
2017-11-30T06:08:11.286Z,998.31
2017-11-30T06:09:11.298Z,998.32
2017-11-30T06:10:11.305Z,998.32
2017-11-30T06:11:11.311Z,998.33
2017-11-30T06:12:11.337Z,998.33
2017-11-30T06:13:11.344Z,998.30
2017-11-30T06:14:11.350Z,998.32
2017-11-30T06:15:11.364Z,998.28
2017-11-30T06:16:11.385Z,998.32
2017-11-30T06:17:11.395Z,998.28
2017-11-30T06:18:11.408Z,998.30
2017-11-30T06:19:11.412Z,998.30
2017-11-30T06:20:11.431Z,998.29
2017-11-30T06:21:11.447Z,998.30
2017-11-30T06:22:11.452Z,998.31
2017-11-30T06:23:11.464Z,998.31
2017-11-30T06:24:11.464Z,998.31
2017-11-30T06:25:11.489Z,998.32
2017-11-30T06:26:11.504Z,998.33
2017-11-30T06:27:11.514Z,998.28
2017-11-30T06:28:11.517Z,998.30
2017-11-30T06:29:11.532Z,998.31
2017-11-30T06:30:11.545Z,998.29
2017-11-30T06:31:11.562Z,998.30
2017-11-30T06:32:11.582Z,998.32
2017-11-30T06:33:11.596Z,998.28
2017-11-30T06:34:11.589Z,998.29
2017-11-30T06:35:11.609Z,998.24
2017-11-30T06:36:11.614Z,998.26
2017-11-30T06:37:11.629Z,998.23
2017-11-30T06:38:11.641Z,998.22
2017-11-30T06:39:11.647Z,998.21
2017-11-30T06:40:11.917Z,998.22
2017-11-30T06:41:11.681Z,998.22
2017-11-30T06:42:11.691Z,998.22
2017-11-30T06:43:11.705Z,998.21
2017-11-30T06:44:11.712Z,998.20
2017-11-30T06:45:11.726Z,998.21
2017-11-30T06:46:11.738Z,998.22
2017-11-30T06:47:11.749Z,998.23
2017-11-30T06:48:11.756Z,998.21
2017-11-30T06:49:11.766Z,998.24
2017-11-30T06:50:11.782Z,998.23
2017-11-30T06:51:11.802Z,998.23
2017-11-30T06:52:11.805Z,998.27
2017-11-30T06:53:11.815Z,998.29
2017-11-30T06:54:11.839Z,998.32
2017-11-30T06:55:11.846Z,998.31
2017-11-30T06:56:11.852Z,998.35
2017-11-30T06:57:11.867Z,998.34
2017-11-30T06:58:11.878Z,998.35
2017-11-30T06:59:11.897Z,998.34
2017-11-30T07:00:12.153Z,998.35
2017-11-30T07:01:11.905Z,998.34
2017-11-30T07:02:11.929Z,998.38
2017-11-30T07:03:11.947Z,998.37
2017-11-30T07:04:11.949Z,998.40
2017-11-30T07:05:11.964Z,998.45
2017-11-30T07:06:11.980Z,998.45
2017-11-30T07:07:11.993Z,998.47
2017-11-30T07:08:11.999Z,998.46
2017-11-30T07:09:12.014Z,998.45
2017-11-30T07:10:12.026Z,998.45
2017-11-30T07:11:12.039Z,998.46
2017-11-30T07:12:12.052Z,998.46
2017-11-30T07:13:12.062Z,998.44
2017-11-30T07:14:12.065Z,998.48
2017-11-30T07:15:12.083Z,998.46
2017-11-30T07:16:12.087Z,998.49
2017-11-30T07:17:12.103Z,998.44
2017-11-30T07:18:12.122Z,998.48
2017-11-30T07:19:12.126Z,998.47
2017-11-30T07:20:12.146Z,998.50
2017-11-30T07:21:12.155Z,998.55
2017-11-30T07:22:12.161Z,998.48
2017-11-30T07:23:12.186Z,998.50
2017-11-30T07:24:12.184Z,998.53
2017-11-30T07:25:12.199Z,998.51
2017-11-30T07:26:12.245Z,998.53
2017-11-30T07:27:12.229Z,998.51
2017-11-30T07:28:12.237Z,998.50
2017-11-30T07:29:12.251Z,998.55
2017-11-30T07:30:12.251Z,998.52
2017-11-30T07:31:12.279Z,998.53
2017-11-30T07:32:12.281Z,998.50
2017-11-30T07:33:12.289Z,998.50
2017-11-30T07:34:12.333Z,998.55
2017-11-30T07:35:12.327Z,998.56
2017-11-30T07:36:12.333Z,998.51
2017-11-30T07:37:12.348Z,998.53
2017-11-30T07:38:12.355Z,998.56
2017-11-30T07:39:12.384Z,998.59
2017-11-30T07:40:12.382Z,998.57
2017-11-30T07:41:12.396Z,998.54
2017-11-30T07:42:12.417Z,998.57
2017-11-30T07:43:12.415Z,998.56
2017-11-30T07:44:12.435Z,998.58
2017-11-30T07:45:12.437Z,998.58
2017-11-30T07:46:12.450Z,998.55
2017-11-30T07:47:12.469Z,998.63
2017-11-30T07:48:12.479Z,998.63
2017-11-30T07:49:12.488Z,998.64
2017-11-30T07:50:12.508Z,998.62
2017-11-30T07:51:12.518Z,998.64
2017-11-30T07:52:12.525Z,998.62
2017-11-30T07:53:12.536Z,998.66
2017-11-30T07:54:12.558Z,998.68
2017-11-30T07:55:12.568Z,998.65
2017-11-30T07:56:12.568Z,998.63
2017-11-30T07:57:12.584Z,998.61
2017-11-30T07:58:12.609Z,998.63
2017-11-30T07:59:12.607Z,998.59
2017-11-30T08:00:12.626Z,998.55
2017-11-30T08:01:12.637Z,998.54
2017-11-30T08:02:12.646Z,998.51
2017-11-30T08:03:12.666Z,998.50
2017-11-30T08:04:12.675Z,998.52
2017-11-30T08:05:12.675Z,998.47
2017-11-30T08:06:12.699Z,998.45
2017-11-30T08:07:12.709Z,998.46
2017-11-30T08:08:12.718Z,998.45
2017-11-30T08:09:12.738Z,998.44
2017-11-30T08:10:12.744Z,998.46
2017-11-30T08:11:12.757Z,998.44
2017-11-30T08:12:12.769Z,998.47
2017-11-30T08:13:12.789Z,998.46
2017-11-30T08:14:12.795Z,998.47
2017-11-30T08:15:12.806Z,998.46
2017-11-30T08:16:12.821Z,998.43
2017-11-30T08:17:12.840Z,998.43
2017-11-30T08:18:12.851Z,998.40
2017-11-30T08:19:12.859Z,998.34
2017-11-30T08:20:12.869Z,998.33
2017-11-30T08:21:12.885Z,998.35
2017-11-30T08:22:12.899Z,998.33
2017-11-30T08:23:12.904Z,998.32
2017-11-30T08:24:12.921Z,998.27
2017-11-30T08:25:12.930Z,998.22
2017-11-30T08:26:12.942Z,998.30
2017-11-30T08:27:12.970Z,998.27
2017-11-30T08:28:12.978Z,998.30
2017-11-30T08:29:12.975Z,998.27
2017-11-30T08:30:12.994Z,998.28
2017-11-30T08:31:13.010Z,998.26
2017-11-30T08:32:13.017Z,998.24
2017-11-30T08:33:13.039Z,998.23
2017-11-30T08:34:13.049Z,998.23
2017-11-30T08:35:13.059Z,998.22
2017-11-30T08:36:13.065Z,998.19
2017-11-30T08:37:13.080Z,998.22
2017-11-30T08:38:13.098Z,998.21
2017-11-30T08:39:13.105Z,998.20
2017-11-30T08:40:13.117Z,998.23
2017-11-30T08:41:13.120Z,998.24
2017-11-30T08:42:13.150Z,998.22
2017-11-30T08:43:13.148Z,998.27
2017-11-30T08:44:13.168Z,998.29
2017-11-30T08:45:13.172Z,998.25
2017-11-30T08:46:13.187Z,998.25
2017-11-30T08:47:13.208Z,998.28
2017-11-30T08:48:13.206Z,998.25
2017-11-30T08:49:13.227Z,998.23
2017-11-30T08:50:13.240Z,998.24
2017-11-30T08:51:13.257Z,998.23
2017-11-30T08:52:13.263Z,998.26
2017-11-30T08:53:13.279Z,998.27
2017-11-30T08:54:13.290Z,998.22
2017-11-30T08:55:13.297Z,998.22
2017-11-30T08:56:13.309Z,998.26
2017-11-30T08:57:13.324Z,998.23
2017-11-30T08:58:13.336Z,998.24
2017-11-30T08:59:13.351Z,998.27
2017-11-30T09:00:13.367Z,998.24
2017-11-30T09:01:13.376Z,998.29
2017-11-30T09:02:13.380Z,998.29
2017-11-30T09:03:13.410Z,998.28
2017-11-30T09:04:13.410Z,998.28
2017-11-30T09:05:13.418Z,998.29
2017-11-30T09:06:13.432Z,998.33
2017-11-30T09:07:13.437Z,998.33
2017-11-30T09:08:13.473Z,998.30
2017-11-30T09:09:13.493Z,998.31
2017-11-30T09:10:13.477Z,998.33
2017-11-30T09:11:13.490Z,998.32
2017-11-30T09:12:13.508Z,998.28
2017-11-30T09:13:13.515Z,998.30
2017-11-30T09:14:13.536Z,998.31
2017-11-30T09:15:13.545Z,998.33
2017-11-30T09:16:13.559Z,998.36
2017-11-30T09:17:13.568Z,998.31
2017-11-30T09:18:13.573Z,998.31
2017-11-30T09:19:13.608Z,998.32
2017-11-30T09:20:13.604Z,998.35
2017-11-30T09:21:13.611Z,998.31
2017-11-30T09:22:13.624Z,998.36
2017-11-30T09:23:13.649Z,998.37
2017-11-30T09:24:13.655Z,998.37
2017-11-30T09:25:13.670Z,998.36
2017-11-30T09:26:13.670Z,998.35
2017-11-30T09:27:13.694Z,998.37
2017-11-30T09:28:13.704Z,998.40
2017-11-30T09:29:13.724Z,998.36
2017-11-30T09:30:13.739Z,998.35
2017-11-30T09:31:13.743Z,998.33
2017-11-30T09:32:13.758Z,998.38
2017-11-30T09:33:13.766Z,998.36
2017-11-30T09:34:13.778Z,998.32
2017-11-30T09:35:13.790Z,998.31
2017-11-30T09:36:13.800Z,998.28
2017-11-30T09:37:13.818Z,998.29
2017-11-30T09:38:13.835Z,998.27
2017-11-30T09:39:13.841Z,998.30
2017-11-30T09:40:13.848Z,998.31
2017-11-30T09:41:13.874Z,998.27
2017-11-30T09:42:13.873Z,998.27
2017-11-30T09:43:13.892Z,998.28
2017-11-30T09:44:13.898Z,998.26
2017-11-30T09:45:13.926Z,998.23
2017-11-30T09:46:13.931Z,998.27
2017-11-30T09:47:13.930Z,998.23
2017-11-30T09:48:13.973Z,998.21
2017-11-30T09:49:13.970Z,998.20
2017-11-30T09:50:13.975Z,998.23
2017-11-30T09:51:13.995Z,998.22
2017-11-30T09:52:14.007Z,998.28
2017-11-30T09:53:14.015Z,998.22
2017-11-30T09:54:14.028Z,998.24
2017-11-30T09:55:14.045Z,998.24
2017-11-30T09:56:14.052Z,998.21
2017-11-30T09:57:14.079Z,998.23
2017-11-30T09:58:14.084Z,998.20
2017-11-30T09:59:14.096Z,998.24
2017-11-30T10:00:14.097Z,998.22
2017-11-30T10:01:14.111Z,998.22
2017-11-30T10:02:14.129Z,998.19
2017-11-30T10:03:14.135Z,998.19
2017-11-30T10:04:14.147Z,998.23
2017-11-30T10:05:14.175Z,998.19
2017-11-30T10:06:14.180Z,998.25
2017-11-30T10:07:14.186Z,998.19
2017-11-30T10:08:14.209Z,998.22
2017-11-30T10:09:14.219Z,998.20
2017-11-30T10:10:14.232Z,998.20
2017-11-30T10:11:14.243Z,998.22
2017-11-30T10:12:14.262Z,998.20
2017-11-30T10:13:14.271Z,998.22
2017-11-30T10:14:14.277Z,998.21
2017-11-30T10:15:14.295Z,998.20
2017-11-30T10:16:14.302Z,998.19
2017-11-30T10:17:14.315Z,998.21
2017-11-30T10:18:14.341Z,998.20
2017-11-30T10:19:14.347Z,998.15
2017-11-30T10:20:14.602Z,998.18
2017-11-30T10:21:14.373Z,998.18
2017-11-30T10:22:14.385Z,998.19
2017-11-30T10:23:14.390Z,998.24
2017-11-30T10:24:14.416Z,998.25
2017-11-30T10:25:14.417Z,998.29
2017-11-30T10:26:14.431Z,998.27
2017-11-30T10:27:14.455Z,998.32
2017-11-30T10:28:14.460Z,998.25
2017-11-30T10:29:14.486Z,998.32
2017-11-30T10:30:14.493Z,998.30
2017-11-30T10:31:14.506Z,998.33
2017-11-30T10:32:14.511Z,998.28
2017-11-30T10:33:14.516Z,998.27
2017-11-30T10:34:14.546Z,998.24
2017-11-30T10:35:14.551Z,998.25
2017-11-30T10:36:14.574Z,998.26
2017-11-30T10:37:14.579Z,998.27
2017-11-30T10:38:14.589Z,998.30
2017-11-30T10:39:14.608Z,998.24
2017-11-30T10:40:14.612Z,998.26
2017-11-30T10:41:14.628Z,998.25
2017-11-30T10:42:14.638Z,998.23
2017-11-30T10:43:14.662Z,998.25
2017-11-30T10:44:14.662Z,998.27
2017-11-30T10:45:14.678Z,998.28
2017-11-30T10:46:14.704Z,998.21
2017-11-30T10:47:14.707Z,998.27
2017-11-30T10:48:14.726Z,998.26
2017-11-30T10:49:14.739Z,998.28
2017-11-30T10:50:14.746Z,998.29
2017-11-30T10:51:14.773Z,998.24
2017-11-30T10:52:14.770Z,998.29
2017-11-30T10:53:14.781Z,998.29
2017-11-30T10:54:14.804Z,998.30
2017-11-30T10:55:14.810Z,998.37
2017-11-30T10:56:14.834Z,998.42
2017-11-30T10:57:14.851Z,998.38
2017-11-30T10:58:14.855Z,998.34
2017-11-30T10:59:14.874Z,998.27
2017-11-30T11:00:14.880Z,998.26
2017-11-30T11:01:14.900Z,998.28
2017-11-30T11:02:14.921Z,998.28
2017-11-30T11:03:14.937Z,998.29
2017-11-30T11:04:14.955Z,998.31
2017-11-30T11:05:14.952Z,998.31
2017-11-30T11:06:14.970Z,998.36
2017-11-30T11:07:14.982Z,998.40
2017-11-30T11:08:15.000Z,998.40
2017-11-30T11:09:15.008Z,998.36
2017-11-30T11:10:15.024Z,998.35
2017-11-30T11:11:15.040Z,998.34
2017-11-30T11:12:15.059Z,998.34
2017-11-30T11:13:15.073Z,998.31
2017-11-30T11:14:15.085Z,998.30
2017-11-30T11:15:15.103Z,998.32
2017-11-30T11:16:15.114Z,998.30
2017-11-30T11:17:15.121Z,998.31
2017-11-30T11:18:15.142Z,998.32
2017-11-30T11:19:15.146Z,998.35
2017-11-30T11:20:15.179Z,998.36
2017-11-30T11:21:15.189Z,998.35
2017-11-30T11:22:15.198Z,998.31
2017-11-30T11:23:15.212Z,998.30
2017-11-30T11:24:15.229Z,998.33
2017-11-30T11:25:15.239Z,998.32
2017-11-30T11:26:15.253Z,998.32
2017-11-30T11:27:15.268Z,998.28
2017-11-30T11:28:15.281Z,998.31
2017-11-30T11:29:15.308Z,998.26
2017-11-30T11:30:15.313Z,998.30
2017-11-30T11:31:15.339Z,998.32
2017-11-30T11:32:15.343Z,998.33
2017-11-30T11:33:15.361Z,998.34
2017-11-30T11:34:15.378Z,998.37
2017-11-30T11:35:15.395Z,998.35
2017-11-30T11:36:15.403Z,998.37
2017-11-30T11:37:15.431Z,998.41
2017-11-30T11:38:15.429Z,998.41
2017-11-30T11:39:15.460Z,998.44
2017-11-30T11:40:15.465Z,998.46
2017-11-30T11:41:15.481Z,998.44
2017-11-30T11:42:15.500Z,998.48
2017-11-30T11:43:15.498Z,998.48
2017-11-30T11:44:15.534Z,998.46
2017-11-30T11:45:15.533Z,998.45
2017-11-30T11:46:15.556Z,998.47
2017-11-30T11:47:15.570Z,998.47
2017-11-30T11:48:15.580Z,998.45
2017-11-30T11:49:15.596Z,998.45
2017-11-30T11:50:15.627Z,998.48
2017-11-30T11:51:15.625Z,998.45
2017-11-30T11:52:15.651Z,998.43
2017-11-30T11:53:15.653Z,998.45
2017-11-30T11:54:15.670Z,998.44
2017-11-30T11:55:15.685Z,998.45
2017-11-30T11:56:15.701Z,998.44
2017-11-30T11:57:15.716Z,998.41
2017-11-30T11:58:15.735Z,998.42
2017-11-30T11:59:15.747Z,998.45
2017-11-30T12:00:15.769Z,998.45
2017-11-30T12:01:15.775Z,998.43
2017-11-30T12:02:15.798Z,998.42
2017-11-30T12:03:15.817Z,998.39
2017-11-30T12:04:15.822Z,998.37
2017-11-30T12:05:15.843Z,998.38
2017-11-30T12:06:15.863Z,998.33
2017-11-30T12:07:15.881Z,998.32
2017-11-30T12:08:15.898Z,998.33
2017-11-30T12:09:15.908Z,998.32
2017-11-30T12:10:15.913Z,998.32
2017-11-30T12:11:15.944Z,998.32
2017-11-30T12:12:15.955Z,998.25
2017-11-30T12:13:15.978Z,998.25
2017-11-30T12:14:15.985Z,998.25
2017-11-30T12:15:16.008Z,998.23
2017-11-30T12:16:16.014Z,998.21
2017-11-30T12:17:16.036Z,998.23
2017-11-30T12:18:16.041Z,998.20
2017-11-30T12:19:16.065Z,998.19
2017-11-30T12:20:16.070Z,998.18
2017-11-30T12:21:16.086Z,998.17
2017-11-30T12:22:16.106Z,998.16
2017-11-30T12:23:16.121Z,998.09
2017-11-30T12:24:16.148Z,998.12
2017-11-30T12:25:16.156Z,998.13
2017-11-30T12:26:16.174Z,998.10
2017-11-30T12:27:16.185Z,998.09
2017-11-30T12:28:16.197Z,998.13